createdAt,value
2023-01-17T00:06:48.959Z,992.34
2023-01-17T00:20:48.896Z,992.31
2023-01-17T00:34:48.958Z,992.91
2023-01-17T00:48:48.958Z,993.09
2023-01-17T01:02:49.017Z,993.13
2023-01-17T01:16:49.041Z,993.14
2023-01-17T01:30:49.013Z,993.2
2023-01-17T01:44:49.137Z,993.22
2023-01-17T01:58:49.139Z,993.29
2023-01-17T02:12:49.159Z,993.29
2023-01-17T02:26:49.245Z,993.24
2023-01-17T02:40:49.214Z,993.01
2023-01-17T02:54:49.213Z,992.74
2023-01-17T03:08:49.222Z,992.73
2023-01-17T03:22:49.250Z,992.69
2023-01-17T03:36:49.252Z,992.75
2023-01-17T03:50:49.276Z,992.48
2023-01-17T04:04:49.323Z,992.29
2023-01-17T04:18:49.329Z,992.45
2023-01-17T04:32:49.402Z,992.63
2023-01-17T04:46:49.407Z,992.48
2023-01-17T05:00:49.407Z,992.86
2023-01-17T05:14:49.400Z,992.75
2023-01-17T05:28:49.547Z,992.88
2023-01-17T05:43:49.451Z,993
2023-01-17T05:57:49.445Z,993.07
2023-01-17T06:11:49.488Z,993.07
2023-01-17T06:25:49.465Z,993.17
2023-01-17T07:01:52.398Z,992.72
2023-01-17T07:16:52.361Z,992.31
2023-01-17T07:31:52.416Z,992.21
2023-01-17T07:46:52.787Z,992.5
2023-01-17T08:01:52.883Z,992.69
2023-01-17T08:16:52.943Z,992.45
2023-01-17T08:31:53.109Z,992.62
2023-01-17T08:46:52.969Z,992.65
2023-01-17T09:01:53.184Z,992.38
2023-01-17T09:16:52.989Z,991.95
2023-01-17T09:31:52.999Z,991.4
2023-01-17T09:47:53.153Z,991.12
2023-01-17T10:02:53.496Z,991.22
2023-01-17T10:23:19.031Z,991.02
2023-01-17T10:38:19.149Z,990.72
2023-01-17T10:53:19.203Z,990.55
2023-01-17T11:08:19.254Z,990.37
2023-01-17T11:23:19.229Z,990.18
2023-01-17T11:38:19.310Z,990.22
2023-01-17T11:53:19.507Z,990.27
2023-01-17T12:08:19.941Z,989.8
2023-01-17T12:23:19.947Z,989.32
2023-01-17T12:38:31.486Z,988.8
2023-01-17T12:53:20.037Z,988.57
2023-01-17T13:08:19.947Z,988.38
2023-01-17T13:23:20.539Z,987.91
2023-01-17T13:38:20.547Z,987.5
2023-01-17T13:53:20.577Z,987.34
2023-01-17T14:08:20.566Z,987.13
2023-01-17T14:23:20.557Z,986.76
2023-01-17T14:38:20.566Z,986.76
2023-01-17T14:53:20.600Z,986.58
2023-01-17T15:08:20.593Z,986.21
2023-01-17T15:24:20.598Z,986.37
2023-01-17T15:39:20.576Z,986.72
2023-01-17T15:54:20.616Z,986.78
2023-01-17T16:09:20.592Z,986.79
2023-01-17T16:24:20.637Z,986.86
2023-01-17T16:38:20.664Z,986.89
2023-01-17T16:52:20.667Z,986.77
2023-01-17T17:06:20.658Z,987.07
2023-01-17T17:20:20.720Z,987.2
2023-01-17T17:34:20.752Z,987.23
2023-01-17T17:48:20.700Z,987.26
2023-01-17T18:02:20.704Z,987.19
2023-01-17T18:16:20.776Z,987.18
2023-01-17T18:30:20.936Z,987.21
2023-01-17T18:44:22.094Z,987.29
2023-01-17T18:58:20.804Z,987.48
2023-01-17T19:12:20.876Z,987.35
2023-01-17T19:26:20.804Z,987.34
2023-01-17T19:40:20.847Z,987.49
2023-01-17T19:54:20.866Z,987.55
2023-01-17T20:08:20.968Z,987.4
2023-01-17T20:22:20.981Z,987.4
2023-01-17T20:36:21.080Z,987.17
2023-01-17T20:50:21.088Z,987.13
2023-01-17T21:04:21.116Z,987.04
2023-01-17T21:18:21.114Z,986.88
2023-01-17T21:32:21.118Z,987.05
2023-01-17T21:46:21.265Z,987.09
2023-01-17T22:00:21.194Z,987.25
2023-01-17T22:14:21.197Z,987.31
2023-01-17T22:28:21.205Z,987.39
2023-01-17T22:42:21.384Z,987.57
2023-01-17T22:56:21.322Z,987.79
2023-01-17T23:10:21.290Z,987.81
2023-01-17T23:24:21.322Z,987.65
2023-01-17T23:36:21.326Z,987.81
2023-01-17T23:50:21.312Z,987.69
